createdAt,value
2023-02-15T00:02:08.768Z,3.29
2023-02-15T00:04:53.060Z,3.43
2023-02-15T00:07:21.243Z,3.35
2023-02-15T00:09:48.994Z,3.20
2023-02-15T00:12:18.322Z,3.10
2023-02-15T00:14:46.281Z,3.04
2023-02-15T00:17:13.959Z,3.03
2023-02-15T00:19:42.027Z,3.04
2023-02-15T00:22:09.703Z,2.99
2023-02-15T00:24:37.367Z,3.02
2023-02-15T00:27:05.118Z,2.99
2023-02-15T00:29:34.299Z,3.08
2023-02-15T00:32:02.026Z,3.16
2023-02-15T00:34:30.216Z,3.30
2023-02-15T00:36:58.014Z,3.22
2023-02-15T00:39:26.541Z,3.05
2023-02-15T00:41:54.198Z,3.00
2023-02-15T00:44:21.883Z,2.96
2023-02-15T00:46:50.964Z,2.99
2023-02-15T00:49:18.630Z,3.05
2023-02-15T00:51:46.268Z,2.84
2023-02-15T00:54:13.988Z,2.81
2023-02-15T00:56:41.719Z,2.90
2023-02-15T00:59:10.586Z,2.99
2023-02-15T01:01:38.304Z,2.95
2023-02-15T01:04:07.556Z,2.94
2023-02-15T01:06:35.247Z,2.92
2023-02-15T01:09:02.916Z,3.03
2023-02-15T01:11:30.654Z,2.97
2023-02-15T01:13:59.719Z,2.83
2023-02-15T01:16:29.853Z,2.78
2023-02-15T01:18:57.813Z,2.75
2023-02-15T01:21:27.757Z,2.72
2023-02-15T01:23:55.474Z,2.68
2023-02-15T01:26:23.128Z,2.67
2023-02-15T01:28:50.860Z,2.73
2023-02-15T01:31:23.140Z,2.76
2023-02-15T01:33:51.167Z,2.78
2023-02-15T01:36:19.093Z,2.83
2023-02-15T01:38:48.703Z,2.71
2023-02-15T01:41:24.043Z,2.53
2023-02-15T01:43:54.149Z,2.39
2023-02-15T01:46:29.052Z,2.32
2023-02-15T01:49:00.557Z,2.33
2023-02-15T01:51:30.188Z,2.37
2023-02-15T01:54:01.863Z,2.41
2023-02-15T01:56:31.908Z,2.43
2023-02-15T01:59:01.780Z,2.47
2023-02-15T02:01:29.692Z,2.49
2023-02-15T02:04:02.784Z,2.41
2023-02-15T02:06:31.436Z,2.29
2023-02-15T02:09:00.517Z,2.22
2023-02-15T02:11:28.326Z,2.20
2023-02-15T02:13:57.205Z,2.21
2023-02-15T02:16:27.384Z,2.21
2023-02-15T02:19:12.809Z,2.29
2023-02-15T02:22:15.703Z,2.23
2023-02-15T02:25:09.427Z,2.10
2023-02-15T02:27:41.011Z,2.04
2023-02-15T02:30:27.877Z,1.99
2023-02-15T02:33:12.437Z,1.85
2023-02-15T02:36:05.713Z,2.01
2023-02-15T02:38:40.392Z,2.11
2023-02-15T02:41:15.092Z,2.21
2023-02-15T02:43:49.924Z,2.30
2023-02-15T02:46:20.531Z,2.33
2023-02-15T02:48:50.461Z,2.41
2023-02-15T02:51:22.389Z,2.50
2023-02-15T02:53:53.621Z,2.57
2023-02-15T02:56:26.515Z,2.61
2023-02-15T02:58:57.743Z,2.58
2023-02-15T03:01:26.808Z,2.57
2023-02-15T03:03:59.192Z,2.60
2023-02-15T03:06:30.550Z,2.59
2023-02-15T03:09:00.626Z,2.54
2023-02-15T03:11:28.407Z,2.57
2023-02-15T03:13:56.087Z,2.57
2023-02-15T03:16:30.080Z,2.62
2023-02-15T03:19:01.538Z,2.63
2023-02-15T03:21:34.337Z,2.72
2023-02-15T03:24:06.498Z,2.71
2023-02-15T03:26:35.154Z,2.76
2023-02-15T03:29:03.910Z,2.77
2023-02-15T03:31:34.394Z,2.80
2023-02-15T03:34:06.970Z,2.83
2023-02-15T03:36:39.646Z,2.81
2023-02-15T03:39:13.830Z,2.90
2023-02-15T03:41:44.851Z,3.12
2023-02-15T03:44:16.174Z,3.16
2023-02-15T03:46:47.393Z,3.27
2023-02-15T03:49:22.003Z,3.32
2023-02-15T03:51:52.505Z,3.41
2023-02-15T03:54:35.548Z,3.54
2023-02-15T03:57:17.969Z,3.66
2023-02-15T04:00:03.117Z,3.67
2023-02-15T04:02:34.306Z,3.70
2023-02-15T04:05:03.455Z,3.60
2023-02-15T04:07:31.165Z,3.60
2023-02-15T04:10:16.450Z,3.63
2023-02-15T04:12:44.162Z,3.56
2023-02-15T04:15:31.710Z,3.59
2023-02-15T04:17:59.390Z,3.43
2023-02-15T04:20:45.908Z,3.62
2023-02-15T04:23:31.346Z,3.75
2023-02-15T04:25:59.076Z,3.82
2023-02-15T04:28:26.861Z,3.16
2023-02-15T04:30:54.545Z,2.94
2023-02-15T04:33:22.203Z,2.85
2023-02-15T04:35:51.243Z,2.84
2023-02-15T04:38:18.916Z,2.81
2023-02-15T04:40:46.623Z,2.82
2023-02-15T04:43:14.341Z,2.76
2023-02-15T04:45:42.466Z,2.71
2023-02-15T04:48:10.144Z,2.71
2023-02-15T04:50:37.856Z,2.67
2023-02-15T04:53:07.095Z,2.73
2023-02-15T04:55:34.764Z,2.74
2023-02-15T04:58:02.477Z,2.71
2023-02-15T05:00:30.208Z,2.75
2023-02-15T05:02:57.845Z,2.67
2023-02-15T05:05:25.504Z,2.70
2023-02-15T05:07:53.203Z,2.79
2023-02-15T05:10:22.578Z,2.88
2023-02-15T05:12:50.326Z,2.96
2023-02-15T05:15:18.252Z,2.89
2023-02-15T05:17:45.966Z,2.83
2023-02-15T05:20:13.900Z,2.80
2023-02-15T05:22:42.354Z,2.78
2023-02-15T05:25:28.514Z,2.69
2023-02-15T05:28:15.169Z,2.69
2023-02-15T05:30:43.914Z,2.62
2023-02-15T05:33:11.679Z,2.60
2023-02-15T05:35:39.348Z,2.53
2023-02-15T05:38:07.027Z,2.55
2023-02-15T05:40:34.728Z,2.53
2023-02-15T05:43:03.775Z,2.49
2023-02-15T05:45:31.466Z,2.42
2023-02-15T05:48:00.098Z,2.44
2023-02-15T05:50:28.114Z,2.42
2023-02-15T05:52:56.220Z,2.35
2023-02-15T05:55:23.871Z,2.32
2023-02-15T05:57:51.523Z,2.33
2023-02-15T06:00:21.320Z,2.31
2023-02-15T06:02:49.036Z,2.22
2023-02-15T06:05:16.873Z,2.18
2023-02-15T06:07:45.556Z,1.84
2023-02-15T06:10:13.293Z,1.69
2023-02-15T06:12:40.968Z,1.63
2023-02-15T06:15:09.251Z,1.61
2023-02-15T06:17:38.278Z,1.63
2023-02-15T06:20:07.230Z,1.66
2023-02-15T06:22:34.885Z,1.73
2023-02-15T06:25:02.548Z,1.75
2023-02-15T06:27:30.249Z,1.77
2023-02-15T06:29:57.929Z,1.81
2023-02-15T06:32:25.658Z,1.83
2023-02-15T06:34:54.735Z,1.89
2023-02-15T06:37:22.431Z,1.88
2023-02-15T06:39:50.074Z,1.89
2023-02-15T06:42:18.916Z,1.95
2023-02-15T06:44:46.668Z,2.00
2023-02-15T06:47:14.435Z,1.98
2023-02-15T06:49:42.132Z,1.95
2023-02-15T06:52:13.395Z,1.98
2023-02-15T06:54:41.823Z,1.91
2023-02-15T06:57:10.462Z,1.98
2023-02-15T06:59:38.137Z,1.95
2023-02-15T07:02:05.859Z,1.96
2023-02-15T07:04:33.662Z,1.96
2023-02-15T07:07:01.463Z,2.00
2023-02-15T07:09:30.641Z,2.15
2023-02-15T07:12:16.051Z,2.14
2023-02-15T07:14:43.742Z,2.24
2023-02-15T07:17:27.495Z,2.16
2023-02-15T07:19:59.052Z,2.22
2023-02-15T07:22:26.805Z,2.25
2023-02-15T07:24:56.499Z,2.33
2023-02-15T07:27:24.118Z,2.40
2023-02-15T07:29:51.863Z,2.52
2023-02-15T07:32:19.615Z,2.60
2023-02-15T07:34:47.367Z,2.69
2023-02-15T07:37:15.114Z,2.76
2023-02-15T07:39:42.814Z,2.84
2023-02-15T07:42:11.855Z,2.94
2023-02-15T07:44:39.504Z,3.07
2023-02-15T07:47:07.499Z,3.18
2023-02-15T07:49:35.410Z,3.31
2023-02-15T07:52:03.425Z,3.48
2023-02-15T07:54:31.120Z,3.50
2023-02-15T07:56:58.790Z,3.56
2023-02-15T07:59:28.313Z,3.66
2023-02-15T08:01:57.356Z,3.76
2023-02-15T08:04:25.624Z,3.80
2023-02-15T08:06:55.170Z,3.85
2023-02-15T08:09:23.419Z,3.99
2023-02-15T08:11:51.261Z,3.89
2023-02-15T08:14:19.980Z,4.02
2023-02-15T08:16:50.225Z,4.11
2023-02-15T08:19:20.113Z,4.25
2023-02-15T08:21:49.313Z,4.25
2023-02-15T08:24:18.712Z,4.30
2023-02-15T08:26:47.682Z,4.49
2023-02-15T08:29:16.310Z,4.60
2023-02-15T08:31:44.151Z,4.72
2023-02-15T08:34:16.479Z,4.87
2023-02-15T08:36:46.372Z,4.87
2023-02-15T08:39:15.182Z,4.99
2023-02-15T08:41:45.062Z,5.02
2023-02-15T08:44:12.793Z,5.17
2023-02-15T08:46:42.516Z,5.10
2023-02-15T08:49:10.564Z,5.26
2023-02-15T08:51:40.833Z,5.30
2023-02-15T08:54:11.453Z,5.40
2023-02-15T08:56:40.361Z,5.41
2023-02-15T08:59:09.403Z,5.37
2023-02-15T09:01:37.461Z,5.42
2023-02-15T09:04:09.594Z,5.45
2023-02-15T09:06:39.587Z,5.56
2023-02-15T09:09:07.664Z,5.69
2023-02-15T09:11:37.165Z,5.63
2023-02-15T09:14:06.547Z,5.78
2023-02-15T09:16:35.752Z,5.97
2023-02-15T09:19:05.646Z,5.99
2023-02-15T09:21:34.460Z,5.97
2023-02-15T09:24:05.912Z,6.02
2023-02-15T09:26:36.014Z,6.02
2023-02-15T09:29:04.729Z,5.90
2023-02-15T09:31:34.460Z,6.02
2023-02-15T09:34:02.880Z,6.08
2023-02-15T09:36:32.405Z,5.99
2023-02-15T09:39:03.293Z,6.17
2023-02-15T09:41:52.856Z,6.32
2023-02-15T09:44:27.824Z,6.51
2023-02-15T09:47:11.193Z,6.59
2023-02-15T09:49:42.700Z,6.59
2023-02-15T09:52:37.214Z,6.74
2023-02-15T09:55:21.923Z,6.90
2023-02-15T09:57:59.883Z,7.02
2023-02-15T10:00:33.728Z,7.20
2023-02-15T10:03:14.144Z,7.22
2023-02-15T10:05:47.739Z,7.24
2023-02-15T10:08:27.813Z,7.33
2023-02-15T10:11:25.160Z,7.41
2023-02-15T10:14:03.207Z,7.49
2023-02-15T10:16:38.376Z,7.22
2023-02-15T10:19:11.226Z,7.39
2023-02-15T10:21:49.383Z,7.57
2023-02-15T10:24:31.280Z,7.79
2023-02-15T10:27:05.385Z,7.99
2023-02-15T10:29:38.004Z,8.15
2023-02-15T10:32:15.870Z,8.34
2023-02-15T10:34:51.073Z,8.53
2023-02-15T10:37:40.953Z,8.56
2023-02-15T10:40:15.636Z,8.64
2023-02-15T10:42:53.626Z,8.72
2023-02-15T10:45:29.765Z,8.78
2023-02-15T10:48:10.965Z,8.80
2023-02-15T10:50:49.628Z,8.82
2023-02-15T10:53:33.725Z,8.82
2023-02-15T10:56:13.512Z,8.87
2023-02-15T10:58:53.010Z,8.98
2023-02-15T11:01:25.880Z,9.05
2023-02-15T11:04:08.916Z,9.08
2023-02-15T11:06:38.182Z,9.05
2023-02-15T11:09:10.553Z,9.20
2023-02-15T11:11:41.430Z,9.24
2023-02-15T11:14:16.638Z,9.06
2023-02-15T11:16:48.960Z,9.01
2023-02-15T11:19:20.435Z,9.15
2023-02-15T11:21:51.229Z,9.39
2023-02-15T11:24:21.002Z,9.56
2023-02-15T11:26:52.099Z,9.80
2023-02-15T11:29:24.913Z,9.97
2023-02-15T11:31:57.316Z,9.97
2023-02-15T11:34:28.232Z,10.00
2023-02-15T11:36:58.321Z,10.23
2023-02-15T11:39:27.576Z,10.33
2023-02-15T11:41:58.277Z,10.38
2023-02-15T11:44:28.518Z,10.33
2023-02-15T11:46:57.571Z,10.36
2023-02-15T11:49:28.205Z,10.45
2023-02-15T11:51:57.292Z,10.55
2023-02-15T11:54:29.091Z,10.62
2023-02-15T11:56:57.571Z,10.58
2023-02-15T11:59:30.355Z,10.58
2023-02-15T12:01:59.360Z,10.63
2023-02-15T12:04:30.598Z,10.63
2023-02-15T12:07:02.807Z,10.75
2023-02-15T12:09:35.351Z,10.71
2023-02-15T12:12:22.059Z,10.72
2023-02-15T12:14:51.522Z,10.63
2023-02-15T12:17:23.122Z,10.61
2023-02-15T12:19:53.515Z,10.71
2023-02-15T12:22:24.853Z,10.72
2023-02-15T12:24:55.021Z,10.88
2023-02-15T12:27:24.337Z,10.94
2023-02-15T12:29:54.016Z,11.00
2023-02-15T12:32:25.896Z,11.07
2023-02-15T12:34:58.165Z,10.93
2023-02-15T12:37:29.080Z,11.03
2023-02-15T12:39:58.495Z,11.18
2023-02-15T12:42:27.384Z,11.25
2023-02-15T12:44:57.812Z,11.13
2023-02-15T12:47:30.786Z,11.26
2023-02-15T12:50:18.569Z,11.36
2023-02-15T12:52:48.704Z,11.43
2023-02-15T12:55:23.100Z,11.49
2023-02-15T12:57:51.456Z,11.58
2023-02-15T13:00:32.764Z,11.51
2023-02-15T13:03:02.777Z,11.43
2023-02-15T13:05:34.583Z,11.67
2023-02-15T13:08:04.484Z,11.75
2023-02-15T13:10:35.271Z,11.83
2023-02-15T13:13:03.963Z,11.81
2023-02-15T13:15:36.917Z,11.95
2023-02-15T13:18:07.663Z,11.89
2023-02-15T13:20:37.329Z,11.91
2023-02-15T13:23:08.542Z,12.17
2023-02-15T13:25:42.690Z,12.17
2023-02-15T13:28:14.807Z,12.22
2023-02-15T13:30:46.047Z,12.19
2023-02-15T13:33:19.312Z,12.14
2023-02-15T13:35:49.659Z,12.39
2023-02-15T13:38:37.393Z,12.56
2023-02-15T13:41:07.057Z,12.65
2023-02-15T13:43:43.613Z,12.73
2023-02-15T13:46:23.570Z,12.88
2023-02-15T13:49:02.415Z,13.06
2023-02-15T13:51:36.439Z,13.09
2023-02-15T13:54:20.167Z,13.13
2023-02-15T13:56:55.812Z,13.06
2023-02-15T13:59:57.284Z,12.75
2023-02-15T14:02:42.546Z,13.11
2023-02-15T14:05:27.336Z,13.28
2023-02-15T14:08:03.948Z,13.27
2023-02-15T14:10:39.372Z,13.16
2023-02-15T14:13:36.786Z,12.95
2023-02-15T14:16:08.017Z,12.87
2023-02-15T14:18:38.601Z,12.80
2023-02-15T14:21:12.134Z,12.68
2023-02-15T14:23:46.241Z,12.65
2023-02-15T14:26:17.546Z,12.45
2023-02-15T14:28:51.725Z,12.31
2023-02-15T14:31:23.416Z,12.19
2023-02-15T14:33:56.813Z,12.21
2023-02-15T14:36:26.942Z,12.18
2023-02-15T14:39:01.884Z,12.21
2023-02-15T14:41:33.218Z,12.20
2023-02-15T14:44:08.223Z,12.30
2023-02-15T14:46:40.958Z,12.42
2023-02-15T14:49:12.473Z,12.42
2023-02-15T14:52:06.526Z,12.45
2023-02-15T14:54:58.048Z,12.40
2023-02-15T14:57:36.045Z,12.39
2023-02-15T15:00:46.927Z,12.35
2023-02-15T15:03:23.562Z,12.39
2023-02-15T15:05:54.118Z,12.34
2023-02-15T15:08:33.919Z,12.31
2023-02-15T15:11:43.732Z,12.30
2023-02-15T15:14:12.919Z,12.27
2023-02-15T15:16:52.112Z,12.24
2023-02-15T15:20:08.363Z,12.23
2023-02-15T15:22:37.188Z,12.06
2023-02-15T15:25:10.271Z,11.93
2023-02-15T15:27:51.810Z,11.91
2023-02-15T15:30:48.879Z,11.84
2023-02-15T15:33:31.880Z,11.79
2023-02-15T15:36:13.990Z,11.67
2023-02-15T15:38:48.597Z,11.69
2023-02-15T15:41:21.451Z,11.63
2023-02-15T15:44:28.483Z,11.52
2023-02-15T15:47:06.194Z,11.44
2023-02-15T15:49:35.085Z,11.36
2023-02-15T15:52:04.023Z,11.31
2023-02-15T15:54:32.202Z,11.25
2023-02-15T15:57:03.464Z,11.10
2023-02-15T15:59:32.723Z,11.05
2023-02-15T16:02:07.938Z,10.94
2023-02-15T16:04:37.092Z,10.87
2023-02-15T16:07:16.458Z,10.76
2023-02-15T16:09:55.888Z,10.61
2023-02-15T16:12:25.768Z,10.52
2023-02-15T16:14:54.517Z,10.31
2023-02-15T16:17:25.115Z,10.26
2023-02-15T16:19:53.574Z,10.26
2023-02-15T16:22:23.298Z,10.21
2023-02-15T16:25:16.072Z,10.09
2023-02-15T16:27:46.400Z,10.03
2023-02-15T16:30:31.322Z,9.97
2023-02-15T16:33:07.596Z,9.83
2023-02-15T16:35:36.387Z,9.80
2023-02-15T16:38:04.675Z,9.74
2023-02-15T16:40:43.057Z,9.71
2023-02-15T16:43:17.573Z,9.63
2023-02-15T16:45:45.740Z,9.51
2023-02-15T16:48:18.851Z,9.47
2023-02-15T16:50:50.702Z,9.40
2023-02-15T16:53:21.853Z,9.36
2023-02-15T16:55:53.185Z,9.28
2023-02-15T16:58:28.278Z,9.20
2023-02-15T17:00:58.754Z,9.17
2023-02-15T17:03:27.138Z,9.11
2023-02-15T17:05:56.772Z,9.10
2023-02-15T17:08:30.550Z,8.96
2023-02-15T17:11:11.023Z,8.99
2023-02-15T17:13:40.710Z,8.95
2023-02-15T17:16:28.081Z,8.91
2023-02-15T17:18:59.378Z,8.86
2023-02-15T17:21:32.504Z,8.84
2023-02-15T17:24:01.993Z,8.78
2023-02-15T17:26:32.839Z,8.76
2023-02-15T17:29:05.077Z,8.73
2023-02-15T17:31:34.374Z,8.69
2023-02-15T17:34:03.328Z,8.65
2023-02-15T17:36:32.331Z,8.55
2023-02-15T17:39:09.683Z,8.57
2023-02-15T17:41:39.150Z,8.57
2023-02-15T17:44:12.065Z,8.57
2023-02-15T17:46:40.549Z,8.55
2023-02-15T17:49:08.540Z,8.54
2023-02-15T17:51:36.501Z,8.50
2023-02-15T17:54:30.477Z,8.48
2023-02-15T17:57:03.279Z,8.42
2023-02-15T17:59:32.412Z,8.38
2023-02-15T18:02:17.764Z,8.34
2023-02-15T18:05:03.258Z,8.31
2023-02-15T18:07:48.636Z,8.32
2023-02-15T18:10:35.913Z,8.35
2023-02-15T18:13:03.770Z,8.33
2023-02-15T18:15:32.907Z,8.32
2023-02-15T18:18:00.607Z,8.33
2023-02-15T18:20:31.908Z,8.32
2023-02-15T18:22:59.644Z,8.24
2023-02-15T18:25:27.314Z,8.26
2023-02-15T18:27:55.522Z,8.19
2023-02-15T18:30:26.206Z,8.12
2023-02-15T18:32:57.137Z,8.22
2023-02-15T18:35:26.491Z,8.23
2023-02-15T18:37:54.684Z,8.17
2023-02-15T18:40:24.068Z,8.14
2023-02-15T18:42:51.873Z,8.14
2023-02-15T18:45:21.086Z,8.15
2023-02-15T18:47:49.494Z,8.19
2023-02-15T18:50:20.454Z,8.19
2023-02-15T18:52:51.227Z,8.10
2023-02-15T18:55:20.247Z,8.12
2023-02-15T18:57:48.783Z,8.09
2023-02-15T19:00:19.063Z,8.09
2023-02-15T19:02:46.971Z,8.10
2023-02-15T19:05:16.081Z,8.10
2023-02-15T19:07:48.403Z,8.05
2023-02-15T19:10:18.393Z,8.06
2023-02-15T19:12:46.184Z,8.03
2023-02-15T19:15:17.410Z,7.98
2023-02-15T19:17:45.182Z,8.00
2023-02-15T19:20:17.262Z,7.94
2023-02-15T19:22:46.754Z,7.96
2023-02-15T19:25:16.897Z,7.90
2023-02-15T19:27:46.281Z,7.87
2023-02-15T19:30:17.317Z,7.81
2023-02-15T19:32:45.368Z,7.73
2023-02-15T19:35:16.903Z,7.68
2023-02-15T19:37:48.014Z,7.70
2023-02-15T19:40:21.713Z,7.71
2023-02-15T19:42:49.761Z,7.66
2023-02-15T19:45:18.204Z,7.67
2023-02-15T19:47:48.137Z,7.56
2023-02-15T19:50:17.120Z,7.60
2023-02-15T19:52:47.169Z,7.63
2023-02-15T19:55:22.654Z,7.61
2023-02-15T19:57:52.129Z,7.58
2023-02-15T20:00:22.785Z,7.56
2023-02-15T20:02:50.766Z,7.55
2023-02-15T20:05:18.487Z,7.48
2023-02-15T20:07:49.561Z,7.48
2023-02-15T20:10:19.284Z,7.43
2023-02-15T20:12:47.753Z,7.44
2023-02-15T20:15:20.719Z,7.42
2023-02-15T20:17:48.621Z,7.37
2023-02-15T20:20:16.749Z,7.34
2023-02-15T20:22:47.009Z,7.37
2023-02-15T20:25:18.050Z,7.36
2023-02-15T20:27:45.721Z,7.35
2023-02-15T20:30:18.390Z,7.60
2023-02-15T20:32:46.377Z,7.63
2023-02-15T20:35:15.851Z,7.67
2023-02-15T20:37:44.944Z,7.66
2023-02-15T20:40:21.907Z,7.37
2023-02-15T20:42:49.931Z,7.22
2023-02-15T20:45:21.957Z,7.22
2023-02-15T20:47:50.356Z,7.24
2023-02-15T20:50:19.315Z,7.28
2023-02-15T20:52:47.673Z,7.38
2023-02-15T20:55:17.250Z,7.53
2023-02-15T20:57:46.972Z,7.59
2023-02-15T21:00:18.832Z,7.51
2023-02-15T21:02:47.825Z,7.48
2023-02-15T21:05:17.452Z,7.52
2023-02-15T21:07:45.418Z,7.27
2023-02-15T21:10:20.749Z,7.32
2023-02-15T21:12:50.471Z,7.37
2023-02-15T21:15:30.704Z,7.35
2023-02-15T21:18:00.415Z,7.16
2023-02-15T21:20:28.926Z,7.35
2023-02-15T21:22:57.455Z,7.33
2023-02-15T21:25:28.692Z,7.29
2023-02-15T21:27:57.715Z,7.29
2023-02-15T21:30:26.372Z,7.26
2023-02-15T21:32:54.200Z,7.27
2023-02-15T21:35:22.331Z,7.27
2023-02-15T21:37:51.943Z,7.23
2023-02-15T21:40:22.820Z,7.19
2023-02-15T21:43:08.405Z,7.15
2023-02-15T21:45:55.130Z,7.13
2023-02-15T21:48:22.861Z,7.11
2023-02-15T21:51:08.676Z,7.10
2023-02-15T21:53:38.261Z,7.07
2023-02-15T21:56:07.874Z,7.11
2023-02-15T21:58:37.698Z,7.15
2023-02-15T22:01:07.492Z,7.12
2023-02-15T22:03:37.376Z,7.16
2023-02-15T22:06:05.760Z,7.05
2023-02-15T22:08:33.802Z,7.10
2023-02-15T22:11:01.682Z,7.22
2023-02-15T22:13:31.481Z,7.32
2023-02-15T22:15:59.802Z,7.36
2023-02-15T22:18:33.359Z,7.34
2023-02-15T22:21:02.877Z,7.33
2023-02-15T22:23:31.086Z,7.40
2023-02-15T22:26:00.564Z,7.43
2023-02-15T22:28:31.812Z,7.45
2023-02-15T22:30:59.565Z,7.43
2023-02-15T22:33:29.893Z,7.54
2023-02-15T22:35:58.242Z,7.45
2023-02-15T22:38:26.116Z,7.51
2023-02-15T22:40:56.213Z,7.68
2023-02-15T22:43:31.989Z,7.59
2023-02-15T22:46:02.585Z,7.63
2023-02-15T22:48:32.024Z,7.62
2023-02-15T22:50:59.749Z,7.74
2023-02-15T22:53:27.510Z,7.72
2023-02-15T22:55:55.786Z,7.56
2023-02-15T22:58:25.971Z,7.56
2023-02-15T23:00:53.833Z,7.67
2023-02-15T23:03:23.892Z,7.69
2023-02-15T23:05:53.596Z,7.58
2023-02-15T23:08:21.571Z,7.37
2023-02-15T23:10:53.554Z,7.39
2023-02-15T23:13:25.731Z,7.20
2023-02-15T23:15:58.187Z,7.23
2023-02-15T23:18:28.449Z,7.14
2023-02-15T23:20:59.288Z,7.08
2023-02-15T23:23:33.096Z,7.00
2023-02-15T23:26:04.123Z,6.93
2023-02-15T23:28:35.662Z,6.93
2023-02-15T23:31:03.802Z,6.93
2023-02-15T23:33:34.010Z,6.92
2023-02-15T23:36:03.059Z,6.84
2023-02-15T23:38:31.807Z,6.78
2023-02-15T23:41:19.849Z,6.68
2023-02-15T23:43:49.542Z,6.64
2023-02-15T23:46:29.825Z,6.65
2023-02-15T23:48:57.956Z,6.60
2023-02-15T23:51:31.567Z,6.52
2023-02-15T23:53:59.570Z,6.51
2023-02-15T23:56:27.433Z,6.50
2023-02-15T23:58:55.198Z,6.41
